sensor_id;sensor_type;location;lat;lon;timestamp;temperature;humidity
27647;DHT22;42229;51.230;6.240;2022-12-18T00:01:14;-3.80;99.90
27647;DHT22;42229;51.230;6.240;2022-12-18T00:03:45;-3.90;99.90
27647;DHT22;42229;51.230;6.240;2022-12-18T00:06:14;-3.90;99.90
27647;DHT22;42229;51.230;6.240;2022-12-18T00:08:41;-4.00;99.90
27647;DHT22;42229;51.230;6.240;2022-12-18T00:11:11;-3.90;99.90
27647;DHT22;42229;51.230;6.240;2022-12-18T00:13:38;-4.00;99.90
27647;DHT22;42229;51.230;6.240;2022-12-18T00:16:09;-4.00;99.90
27647;DHT22;42229;51.230;6.240;2022-12-18T00:18:37;-3.90;99.90
27647;DHT22;42229;51.230;6.240;2022-12-18T00:21:04;-4.00;99.90
27647;DHT22;42229;51.230;6.240;2022-12-18T00:23:32;-3.90;99.90
27647;DHT22;42229;51.230;6.240;2022-12-18T00:26:03;-3.90;99.90
27647;DHT22;42229;51.230;6.240;2022-12-18T00:28:31;-3.90;99.90
27647;DHT22;42229;51.230;6.240;2022-12-18T00:31:05;-3.90;99.90
27647;DHT22;42229;51.230;6.240;2022-12-18T00:33:32;-3.90;99.90
27647;DHT22;42229;51.230;6.240;2022-12-18T00:36:02;-3.90;99.90
27647;DHT22;42229;51.230;6.240;2022-12-18T00:38:32;-3.90;99.90
27647;DHT22;42229;51.230;6.240;2022-12-18T00:40:58;-3.90;99.90
27647;DHT22;42229;51.230;6.240;2022-12-18T00:43:24;-3.90;99.90
27647;DHT22;42229;51.230;6.240;2022-12-18T00:45:52;-4.00;99.90
27647;DHT22;42229;51.230;6.240;2022-12-18T00:48:18;-4.00;99.90
27647;DHT22;42229;51.230;6.240;2022-12-18T00:50:45;-4.00;99.90
27647;DHT22;42229;51.230;6.240;2022-12-18T00:53:11;-4.00;99.90
27647;DHT22;42229;51.230;6.240;2022-12-18T00:55:41;-4.10;99.90
27647;DHT22;42229;51.230;6.240;2022-12-18T00:58:07;-4.10;99.90
27647;DHT22;42229;51.230;6.240;2022-12-18T01:00:35;-4.10;99.90
27647;DHT22;42229;51.230;6.240;2022-12-18T01:03:01;-4.10;99.90
27647;DHT22;42229;51.230;6.240;2022-12-18T01:05:28;-4.10;99.90
27647;DHT22;42229;51.230;6.240;2022-12-18T01:07:55;-4.10;99.90
27647;DHT22;42229;51.230;6.240;2022-12-18T01:10:22;-4.10;99.90
27647;DHT22;42229;51.230;6.240;2022-12-18T01:12:48;-4.10;99.90
27647;DHT22;42229;51.230;6.240;2022-12-18T01:15:17;-4.20;99.90
27647;DHT22;42229;51.230;6.240;2022-12-18T01:17:43;-4.20;99.90
27647;DHT22;42229;51.230;6.240;2022-12-18T01:20:11;-4.20;99.90
27647;DHT22;42229;51.230;6.240;2022-12-18T01:22:38;-4.20;99.90
27647;DHT22;42229;51.230;6.240;2022-12-18T01:25:07;-4.20;99.90
27647;DHT22;42229;51.230;6.240;2022-12-18T01:27:33;-4.30;99.90
27647;DHT22;42229;51.230;6.240;2022-12-18T01:30:00;-4.30;99.90
27647;DHT22;42229;51.230;6.240;2022-12-18T01:32:29;-4.30;99.90
27647;DHT22;42229;51.230;6.240;2022-12-18T01:34:56;-4.40;99.90
27647;DHT22;42229;51.230;6.240;2022-12-18T01:37:22;-4.40;99.90
27647;DHT22;42229;51.230;6.240;2022-12-18T01:39:48;-4.50;99.90
27647;DHT22;42229;51.230;6.240;2022-12-18T01:42:15;-4.50;99.90
27647;DHT22;42229;51.230;6.240;2022-12-18T01:50:17;-4.60;99.90
27647;DHT22;42229;51.230;6.240;2022-12-18T01:52:46;-4.70;99.90
27647;DHT22;42229;51.230;6.240;2022-12-18T01:55:16;-4.70;99.90
27647;DHT22;42229;51.230;6.240;2022-12-18T01:57:45;-4.80;99.90
27647;DHT22;42229;51.230;6.240;2022-12-18T02:00:14;-4.80;99.90
27647;DHT22;42229;51.230;6.240;2022-12-18T02:02:50;-4.90;99.90
27647;DHT22;42229;51.230;6.240;2022-12-18T02:05:40;-4.90;99.90
27647;DHT22;42229;51.230;6.240;2022-12-18T02:08:23;-5.00;99.90
27647;DHT22;42229;51.230;6.240;2022-12-18T02:13:46;-5.00;99.90
27647;DHT22;42229;51.230;6.240;2022-12-18T02:16:21;-5.10;99.90
27647;DHT22;42229;51.230;6.240;2022-12-18T02:18:53;-5.10;99.90
27647;DHT22;42229;51.230;6.240;2022-12-18T02:21:26;-5.00;99.90
27647;DHT22;42229;51.230;6.240;2022-12-18T02:26:50;-5.00;99.90
27647;DHT22;42229;51.230;6.240;2022-12-18T02:29:23;-5.10;99.90
27647;DHT22;42229;51.230;6.240;2022-12-18T02:31:54;-5.10;99.90
27647;DHT22;42229;51.230;6.240;2022-12-18T02:34:24;-5.10;99.90
27647;DHT22;42229;51.230;6.240;2022-12-18T02:36:54;-5.10;99.90
27647;DHT22;42229;51.230;6.240;2022-12-18T02:39:21;-5.10;99.90
27647;DHT22;42229;51.230;6.240;2022-12-18T02:41:57;-5.20;99.90
27647;DHT22;42229;51.230;6.240;2022-12-18T02:44:25;-5.20;99.90
27647;DHT22;42229;51.230;6.240;2022-12-18T02:46:52;-5.20;99.90
27647;DHT22;42229;51.230;6.240;2022-12-18T02:52:09;-5.30;99.90
27647;DHT22;42229;51.230;6.240;2022-12-18T02:57:42;-5.40;99.90
27647;DHT22;42229;51.230;6.240;2022-12-18T03:00:23;-5.40;99.90
27647;DHT22;42229;51.230;6.240;2022-12-18T03:02:56;-5.40;99.90
27647;DHT22;42229;51.230;6.240;2022-12-18T03:05:36;-5.40;99.90
27647;DHT22;42229;51.230;6.240;2022-12-18T03:08:16;-5.40;99.90
27647;DHT22;42229;51.230;6.240;2022-12-18T03:11:01;-5.30;99.90
27647;DHT22;42229;51.230;6.240;2022-12-18T03:13:43;-5.30;99.90
27647;DHT22;42229;51.230;6.240;2022-12-18T03:16:15;-5.20;99.90
27647;DHT22;42229;51.230;6.240;2022-12-18T03:18:48;-5.10;99.90
27647;DHT22;42229;51.230;6.240;2022-12-18T03:21:29;-5.00;99.90
27647;DHT22;42229;51.230;6.240;2022-12-18T03:23:58;-5.00;99.90
27647;DHT22;42229;51.230;6.240;2022-12-18T03:26:26;-4.90;99.90
27647;DHT22;42229;51.230;6.240;2022-12-18T03:28:58;-4.90;99.90
27647;DHT22;42229;51.230;6.240;2022-12-18T03:31:27;-4.80;99.90
27647;DHT22;42229;51.230;6.240;2022-12-18T03:33:56;-4.70;99.90
27647;DHT22;42229;51.230;6.240;2022-12-18T03:36:31;-4.70;99.90
27647;DHT22;42229;51.230;6.240;2022-12-18T03:38:58;-4.60;99.90
27647;DHT22;42229;51.230;6.240;2022-12-18T03:41:33;-4.50;99.90
27647;DHT22;42229;51.230;6.240;2022-12-18T03:47:08;-4.40;99.90
27647;DHT22;42229;51.230;6.240;2022-12-18T03:49:50;-4.30;99.90
27647;DHT22;42229;51.230;6.240;2022-12-18T03:52:46;-4.30;99.90
27647;DHT22;42229;51.230;6.240;2022-12-18T03:55:16;-4.30;99.90
27647;DHT22;42229;51.230;6.240;2022-12-18T03:57:45;-4.30;99.90
27647;DHT22;42229;51.230;6.240;2022-12-18T04:00:13;-4.30;99.90
27647;DHT22;42229;51.230;6.240;2022-12-18T04:02:54;-4.30;99.90
27647;DHT22;42229;51.230;6.240;2022-12-18T04:05:28;-4.30;99.90
27647;DHT22;42229;51.230;6.240;2022-12-18T04:07:55;-4.30;99.90
27647;DHT22;42229;51.230;6.240;2022-12-18T04:10:22;-4.30;99.90
27647;DHT22;42229;51.230;6.240;2022-12-18T04:12:48;-4.30;99.90
27647;DHT22;42229;51.230;6.240;2022-12-18T04:15:15;-4.30;99.90
27647;DHT22;42229;51.230;6.240;2022-12-18T04:17:49;-4.30;99.90
27647;DHT22;42229;51.230;6.240;2022-12-18T04:20:18;-4.30;99.90
27647;DHT22;42229;51.230;6.240;2022-12-18T04:22:45;-4.30;99.90
27647;DHT22;42229;51.230;6.240;2022-12-18T04:25:11;-4.30;99.90
27647;DHT22;42229;51.230;6.240;2022-12-18T04:27:47;-4.30;99.90
27647;DHT22;42229;51.230;6.240;2022-12-18T04:30:13;-4.20;99.90
27647;DHT22;42229;51.230;6.240;2022-12-18T04:32:39;-4.20;99.90
27647;DHT22;42229;51.230;6.240;2022-12-18T04:35:05;-4.20;99.90
27647;DHT22;42229;51.230;6.240;2022-12-18T04:37:36;-4.20;99.90
27647;DHT22;42229;51.230;6.240;2022-12-18T04:40:02;-4.20;99.90
27647;DHT22;42229;51.230;6.240;2022-12-18T04:42:38;-4.20;99.90
27647;DHT22;42229;51.230;6.240;2022-12-18T04:45:05;-4.20;99.90
27647;DHT22;42229;51.230;6.240;2022-12-18T04:47:32;-4.10;99.90
27647;DHT22;42229;51.230;6.240;2022-12-18T04:49:58;-4.20;99.90
27647;DHT22;42229;51.230;6.240;2022-12-18T04:52:24;-4.10;99.90
27647;DHT22;42229;51.230;6.240;2022-12-18T04:54:51;-4.10;99.90
27647;DHT22;42229;51.230;6.240;2022-12-18T04:57:17;-4.10;99.90
27647;DHT22;42229;51.230;6.240;2022-12-18T04:59:46;-4.10;99.90
27647;DHT22;42229;51.230;6.240;2022-12-18T05:02:12;-4.10;99.90
27647;DHT22;42229;51.230;6.240;2022-12-18T05:04:38;-4.00;99.90
27647;DHT22;42229;51.230;6.240;2022-12-18T05:07:05;-4.00;99.90
27647;DHT22;42229;51.230;6.240;2022-12-18T05:09:31;-4.00;99.90
27647;DHT22;42229;51.230;6.240;2022-12-18T05:11:57;-3.90;99.90
27647;DHT22;42229;51.230;6.240;2022-12-18T05:14:23;-3.90;99.90
27647;DHT22;42229;51.230;6.240;2022-12-18T05:16:50;-3.90;99.90
27647;DHT22;42229;51.230;6.240;2022-12-18T05:19:16;-3.80;99.90
27647;DHT22;42229;51.230;6.240;2022-12-18T05:21:42;-3.80;99.90
27647;DHT22;42229;51.230;6.240;2022-12-18T05:24:08;-3.80;99.90
27647;DHT22;42229;51.230;6.240;2022-12-18T05:26:34;-3.70;99.90
27647;DHT22;42229;51.230;6.240;2022-12-18T05:29:01;-3.70;99.90
27647;DHT22;42229;51.230;6.240;2022-12-18T05:31:27;-3.70;99.90
27647;DHT22;42229;51.230;6.240;2022-12-18T05:33:53;-3.70;99.90
27647;DHT22;42229;51.230;6.240;2022-12-18T05:36:19;-3.70;99.90
27647;DHT22;42229;51.230;6.240;2022-12-18T05:38:46;-3.70;99.90
27647;DHT22;42229;51.230;6.240;2022-12-18T05:41:12;-3.70;99.90
27647;DHT22;42229;51.230;6.240;2022-12-18T05:43:39;-3.70;99.90
27647;DHT22;42229;51.230;6.240;2022-12-18T05:46:06;-3.60;99.90
27647;DHT22;42229;51.230;6.240;2022-12-18T05:48:33;-3.70;99.90
27647;DHT22;42229;51.230;6.240;2022-12-18T05:51:03;-3.60;99.90
27647;DHT22;42229;51.230;6.240;2022-12-18T05:53:31;-3.60;99.90
27647;DHT22;42229;51.230;6.240;2022-12-18T05:56:02;-3.60;99.90
27647;DHT22;42229;51.230;6.240;2022-12-18T05:58:29;-3.60;99.90
27647;DHT22;42229;51.230;6.240;2022-12-18T06:00:56;-3.50;99.90
27647;DHT22;42229;51.230;6.240;2022-12-18T06:03:23;-3.50;99.90
27647;DHT22;42229;51.230;6.240;2022-12-18T06:05:49;-3.50;99.90
27647;DHT22;42229;51.230;6.240;2022-12-18T06:08:15;-3.50;99.90
27647;DHT22;42229;51.230;6.240;2022-12-18T06:10:41;-3.50;99.90
27647;DHT22;42229;51.230;6.240;2022-12-18T06:13:08;-3.50;99.90
27647;DHT22;42229;51.230;6.240;2022-12-18T06:15:37;-3.40;99.90
27647;DHT22;42229;51.230;6.240;2022-12-18T06:18:04;-3.40;99.90
27647;DHT22;42229;51.230;6.240;2022-12-18T06:20:30;-3.40;99.90
27647;DHT22;42229;51.230;6.240;2022-12-18T06:22:56;-3.40;99.90
27647;DHT22;42229;51.230;6.240;2022-12-18T06:25:22;-3.40;99.90
27647;DHT22;42229;51.230;6.240;2022-12-18T06:27:48;-3.40;99.90
27647;DHT22;42229;51.230;6.240;2022-12-18T06:30:15;-3.30;99.90
27647;DHT22;42229;51.230;6.240;2022-12-18T06:32:41;-3.30;99.90
27647;DHT22;42229;51.230;6.240;2022-12-18T06:35:07;-3.30;99.90
27647;DHT22;42229;51.230;6.240;2022-12-18T06:37:33;-3.30;99.90
27647;DHT22;42229;51.230;6.240;2022-12-18T06:40:00;-3.30;99.90
27647;DHT22;42229;51.230;6.240;2022-12-18T06:42:26;-3.30;99.90
27647;DHT22;42229;51.230;6.240;2022-12-18T06:44:54;-3.30;99.90
27647;DHT22;42229;51.230;6.240;2022-12-18T06:47:20;-3.30;99.90
27647;DHT22;42229;51.230;6.240;2022-12-18T06:49:47;-3.30;99.90
27647;DHT22;42229;51.230;6.240;2022-12-18T06:52:13;-3.20;99.90
27647;DHT22;42229;51.230;6.240;2022-12-18T06:54:40;-3.20;99.90
27647;DHT22;42229;51.230;6.240;2022-12-18T06:57:06;-3.20;99.90
27647;DHT22;42229;51.230;6.240;2022-12-18T06:59:32;-3.20;99.90
27647;DHT22;42229;51.230;6.240;2022-12-18T07:01:58;-3.20;99.90
27647;DHT22;42229;51.230;6.240;2022-12-18T07:04:31;-3.20;99.90
27647;DHT22;42229;51.230;6.240;2022-12-18T07:06:57;-3.10;99.90
27647;DHT22;42229;51.230;6.240;2022-12-18T07:09:23;-3.10;99.90
27647;DHT22;42229;51.230;6.240;2022-12-18T07:11:50;-3.10;99.90
27647;DHT22;42229;51.230;6.240;2022-12-18T07:14:16;-3.10;99.90
27647;DHT22;42229;51.230;6.240;2022-12-18T07:16:42;-3.20;99.90
27647;DHT22;42229;51.230;6.240;2022-12-18T07:19:08;-3.10;99.90
27647;DHT22;42229;51.230;6.240;2022-12-18T07:21:35;-3.10;99.90
27647;DHT22;42229;51.230;6.240;2022-12-18T07:24:01;-3.20;99.90
27647;DHT22;42229;51.230;6.240;2022-12-18T07:26:27;-3.10;99.90
27647;DHT22;42229;51.230;6.240;2022-12-18T07:28:57;-3.10;99.90
27647;DHT22;42229;51.230;6.240;2022-12-18T07:31:24;-3.10;99.90
27647;DHT22;42229;51.230;6.240;2022-12-18T07:33:50;-3.20;99.90
27647;DHT22;42229;51.230;6.240;2022-12-18T07:36:17;-3.10;99.90
27647;DHT22;42229;51.230;6.240;2022-12-18T07:38:46;-3.10;99.90
27647;DHT22;42229;51.230;6.240;2022-12-18T07:41:13;-3.10;99.90
27647;DHT22;42229;51.230;6.240;2022-12-18T07:43:40;-3.10;99.90
27647;DHT22;42229;51.230;6.240;2022-12-18T07:46:07;-3.10;99.90
27647;DHT22;42229;51.230;6.240;2022-12-18T07:48:34;-3.10;99.90
27647;DHT22;42229;51.230;6.240;2022-12-18T07:51:01;-3.10;99.90
27647;DHT22;42229;51.230;6.240;2022-12-18T07:53:30;-3.10;99.90
27647;DHT22;42229;51.230;6.240;2022-12-18T07:55:57;-3.10;99.90
27647;DHT22;42229;51.230;6.240;2022-12-18T07:58:24;-3.10;99.90
27647;DHT22;42229;51.230;6.240;2022-12-18T08:00:52;-3.00;99.90
27647;DHT22;42229;51.230;6.240;2022-12-18T08:03:21;-3.00;99.90
27647;DHT22;42229;51.230;6.240;2022-12-18T08:05:47;-3.00;99.90
27647;DHT22;42229;51.230;6.240;2022-12-18T08:08:14;-2.90;99.90
27647;DHT22;42229;51.230;6.240;2022-12-18T08:10:40;-2.90;99.90
27647;DHT22;42229;51.230;6.240;2022-12-18T08:13:06;-2.90;99.90
27647;DHT22;42229;51.230;6.240;2022-12-18T08:15:33;-2.80;99.90
27647;DHT22;42229;51.230;6.240;2022-12-18T08:17:59;-2.80;99.90
27647;DHT22;42229;51.230;6.240;2022-12-18T08:20:25;-2.80;99.90
27647;DHT22;42229;51.230;6.240;2022-12-18T08:22:51;-2.80;99.90
27647;DHT22;42229;51.230;6.240;2022-12-18T08:25:17;-2.70;99.90
27647;DHT22;42229;51.230;6.240;2022-12-18T08:27:44;-2.70;99.90
27647;DHT22;42229;51.230;6.240;2022-12-18T08:30:10;-2.70;99.90
27647;DHT22;42229;51.230;6.240;2022-12-18T08:32:37;-2.60;99.90
27647;DHT22;42229;51.230;6.240;2022-12-18T08:35:06;-2.60;99.90
27647;DHT22;42229;51.230;6.240;2022-12-18T08:37:33;-2.50;99.90
27647;DHT22;42229;51.230;6.240;2022-12-18T08:40:00;-2.40;99.90
27647;DHT22;42229;51.230;6.240;2022-12-18T08:42:26;-2.40;99.90
27647;DHT22;42229;51.230;6.240;2022-12-18T08:45:11;-2.30;99.90
27647;DHT22;42229;51.230;6.240;2022-12-18T08:47:37;-2.30;99.90
27647;DHT22;42229;51.230;6.240;2022-12-18T08:50:04;-2.20;99.90
27647;DHT22;42229;51.230;6.240;2022-12-18T08:52:31;-2.10;99.90
27647;DHT22;42229;51.230;6.240;2022-12-18T08:54:58;-2.10;99.90
27647;DHT22;42229;51.230;6.240;2022-12-18T08:57:24;-2.00;99.90
27647;DHT22;42229;51.230;6.240;2022-12-18T08:59:50;-2.00;99.90
27647;DHT22;42229;51.230;6.240;2022-12-18T09:02:16;-1.90;99.90
27647;DHT22;42229;51.230;6.240;2022-12-18T09:04:42;-1.90;99.90
27647;DHT22;42229;51.230;6.240;2022-12-18T09:07:09;-1.80;99.90
27647;DHT22;42229;51.230;6.240;2022-12-18T09:09:35;-1.80;99.90
27647;DHT22;42229;51.230;6.240;2022-12-18T09:12:01;-1.70;99.90
27647;DHT22;42229;51.230;6.240;2022-12-18T09:14:27;-1.60;99.90
27647;DHT22;42229;51.230;6.240;2022-12-18T09:16:54;-1.50;99.90
27647;DHT22;42229;51.230;6.240;2022-12-18T09:19:20;-1.50;99.90
27647;DHT22;42229;51.230;6.240;2022-12-18T09:21:46;-1.40;99.90
27647;DHT22;42229;51.230;6.240;2022-12-18T09:24:13;-1.30;99.90
27647;DHT22;42229;51.230;6.240;2022-12-18T09:26:40;-1.30;99.90
27647;DHT22;42229;51.230;6.240;2022-12-18T09:29:06;-1.20;99.90
27647;DHT22;42229;51.230;6.240;2022-12-18T09:31:33;-1.10;99.90
27647;DHT22;42229;51.230;6.240;2022-12-18T09:33:59;-1.00;99.90
27647;DHT22;42229;51.230;6.240;2022-12-18T09:36:26;-0.90;99.90
27647;DHT22;42229;51.230;6.240;2022-12-18T09:38:52;-0.80;99.90
27647;DHT22;42229;51.230;6.240;2022-12-18T09:41:38;-0.80;99.90
27647;DHT22;42229;51.230;6.240;2022-12-18T09:47:21;-0.60;99.90
27647;DHT22;42229;51.230;6.240;2022-12-18T09:49:51;-0.50;99.90
27647;DHT22;42229;51.230;6.240;2022-12-18T09:52:34;-0.40;99.90
27647;DHT22;42229;51.230;6.240;2022-12-18T09:55:24;-0.30;99.90
27647;DHT22;42229;51.230;6.240;2022-12-18T09:58:00;-0.30;99.90
27647;DHT22;42229;51.230;6.240;2022-12-18T10:00:32;-0.20;99.90
27647;DHT22;42229;51.230;6.240;2022-12-18T10:02:59;-0.10;99.90
27647;DHT22;42229;51.230;6.240;2022-12-18T10:11:16;0.10;99.90
27647;DHT22;42229;51.230;6.240;2022-12-18T10:13:55;0.20;99.90
27647;DHT22;42229;51.230;6.240;2022-12-18T10:16:26;0.20;99.90
27647;DHT22;42229;51.230;6.240;2022-12-18T10:19:02;0.30;99.90
27647;DHT22;42229;51.230;6.240;2022-12-18T10:24:16;0.50;99.90
27647;DHT22;42229;51.230;6.240;2022-12-18T10:26:47;0.60;99.90
27647;DHT22;42229;51.230;6.240;2022-12-18T10:29:14;0.60;99.90
27647;DHT22;42229;51.230;6.240;2022-12-18T10:31:42;0.70;99.90
27647;DHT22;42229;51.230;6.240;2022-12-18T10:34:11;0.70;99.90
27647;DHT22;42229;51.230;6.240;2022-12-18T10:36:38;0.80;99.90
27647;DHT22;42229;51.230;6.240;2022-12-18T10:39:14;0.90;99.90
27647;DHT22;42229;51.230;6.240;2022-12-18T10:41:44;0.90;99.90
27647;DHT22;42229;51.230;6.240;2022-12-18T10:44:20;1.00;99.90
27647;DHT22;42229;51.230;6.240;2022-12-18T10:46:48;1.00;99.90
27647;DHT22;42229;51.230;6.240;2022-12-18T10:49:21;1.10;99.90
27647;DHT22;42229;51.230;6.240;2022-12-18T10:51:49;1.10;99.90
27647;DHT22;42229;51.230;6.240;2022-12-18T10:54:17;1.20;99.90
27647;DHT22;42229;51.230;6.240;2022-12-18T10:56:45;1.20;99.90
27647;DHT22;42229;51.230;6.240;2022-12-18T10:59:12;1.30;99.90
27647;DHT22;42229;51.230;6.240;2022-12-18T11:01:53;1.30;99.90
27647;DHT22;42229;51.230;6.240;2022-12-18T11:04:24;1.40;99.90
27647;DHT22;42229;51.230;6.240;2022-12-18T11:09:26;1.50;99.90
27647;DHT22;42229;51.230;6.240;2022-12-18T11:12:15;1.50;99.90
27647;DHT22;42229;51.230;6.240;2022-12-18T11:17:35;1.60;99.90
27647;DHT22;42229;51.230;6.240;2022-12-18T11:20:03;1.60;99.90
27647;DHT22;42229;51.230;6.240;2022-12-18T11:22:31;1.70;99.90
27647;DHT22;42229;51.230;6.240;2022-12-18T11:27:26;1.80;99.90
27647;DHT22;42229;51.230;6.240;2022-12-18T11:29:52;1.80;99.90
27647;DHT22;42229;51.230;6.240;2022-12-18T11:32:35;1.80;99.90
27647;DHT22;42229;51.230;6.240;2022-12-18T11:35:14;1.80;99.90
27647;DHT22;42229;51.230;6.240;2022-12-18T11:37:46;1.90;99.90
27647;DHT22;42229;51.230;6.240;2022-12-18T11:40:18;1.90;99.90
27647;DHT22;42229;51.230;6.240;2022-12-18T11:42:51;1.90;99.90
27647;DHT22;42229;51.230;6.240;2022-12-18T11:45:26;1.90;99.90
27647;DHT22;42229;51.230;6.240;2022-12-18T11:51:00;2.00;99.90
27647;DHT22;42229;51.230;6.240;2022-12-18T11:53:29;2.00;99.90
27647;DHT22;42229;51.230;6.240;2022-12-18T11:56:17;2.00;99.90
27647;DHT22;42229;51.230;6.240;2022-12-18T11:59:00;2.10;99.90
27647;DHT22;42229;51.230;6.240;2022-12-18T12:09:32;2.20;99.90
27647;DHT22;42229;51.230;6.240;2022-12-18T12:17:52;2.30;99.90
27647;DHT22;42229;51.230;6.240;2022-12-18T12:26:23;2.40;99.90
27647;DHT22;42229;51.230;6.240;2022-12-18T12:29:09;2.40;99.90
27647;DHT22;42229;51.230;6.240;2022-12-18T12:31:55;2.40;99.90
27647;DHT22;42229;51.230;6.240;2022-12-18T12:39:53;2.50;99.90
27647;DHT22;42229;51.230;6.240;2022-12-18T12:42:26;2.50;99.90
27647;DHT22;42229;51.230;6.240;2022-12-18T12:45:22;2.60;99.90
27647;DHT22;42229;51.230;6.240;2022-12-18T12:47:53;2.60;99.90
27647;DHT22;42229;51.230;6.240;2022-12-18T12:50:20;2.70;99.90
27647;DHT22;42229;51.230;6.240;2022-12-18T12:52:53;2.70;99.90
27647;DHT22;42229;51.230;6.240;2022-12-18T12:55:22;2.70;99.90
27647;DHT22;42229;51.230;6.240;2022-12-18T13:00:46;2.80;99.90
27647;DHT22;42229;51.230;6.240;2022-12-18T13:05:54;2.80;99.90
27647;DHT22;42229;51.230;6.240;2022-12-18T13:08:24;2.90;99.90
27647;DHT22;42229;51.230;6.240;2022-12-18T13:10:52;2.90;99.90
27647;DHT22;42229;51.230;6.240;2022-12-18T13:13:53;2.90;99.90
27647;DHT22;42229;51.230;6.240;2022-12-18T13:16:24;2.90;99.90
27647;DHT22;42229;51.230;6.240;2022-12-18T13:18:53;2.90;99.90
27647;DHT22;42229;51.230;6.240;2022-12-18T13:21:27;2.90;99.90
27647;DHT22;42229;51.230;6.240;2022-12-18T13:24:14;2.90;99.90
27647;DHT22;42229;51.230;6.240;2022-12-18T13:26:42;2.90;99.90
27647;DHT22;42229;51.230;6.240;2022-12-18T13:29:08;2.90;99.90
27647;DHT22;42229;51.230;6.240;2022-12-18T13:34:25;2.90;99.90
27647;DHT22;42229;51.230;6.240;2022-12-18T13:36:53;2.90;99.90
27647;DHT22;42229;51.230;6.240;2022-12-18T13:39:22;3.00;99.90
27647;DHT22;42229;51.230;6.240;2022-12-18T13:42:21;3.00;99.90
27647;DHT22;42229;51.230;6.240;2022-12-18T13:44:59;3.00;99.90
27647;DHT22;42229;51.230;6.240;2022-12-18T13:47:27;3.00;99.90
27647;DHT22;42229;51.230;6.240;2022-12-18T13:49:57;2.90;99.90
27647;DHT22;42229;51.230;6.240;2022-12-18T13:52:36;3.00;99.90
27647;DHT22;42229;51.230;6.240;2022-12-18T13:55:04;3.00;99.90
27647;DHT22;42229;51.230;6.240;2022-12-18T13:57:36;2.90;99.90
27647;DHT22;42229;51.230;6.240;2022-12-18T14:02:48;2.90;99.90
27647;DHT22;42229;51.230;6.240;2022-12-18T14:05:32;2.80;99.90
27647;DHT22;42229;51.230;6.240;2022-12-18T14:08:07;2.80;99.90
27647;DHT22;42229;51.230;6.240;2022-12-18T14:10:39;2.80;99.90
27647;DHT22;42229;51.230;6.240;2022-12-18T14:13:08;2.80;99.90
27647;DHT22;42229;51.230;6.240;2022-12-18T14:15:38;2.80;99.90
27647;DHT22;42229;51.230;6.240;2022-12-18T14:20:52;2.80;99.90
27647;DHT22;42229;51.230;6.240;2022-12-18T14:23:27;2.70;99.90
27647;DHT22;42229;51.230;6.240;2022-12-18T14:25:59;2.70;99.90
27647;DHT22;42229;51.230;6.240;2022-12-18T14:28:44;2.70;99.90
27647;DHT22;42229;51.230;6.240;2022-12-18T14:31:23;2.60;99.90
27647;DHT22;42229;51.230;6.240;2022-12-18T14:33:51;2.60;99.90
27647;DHT22;42229;51.230;6.240;2022-12-18T14:36:18;2.50;99.90
27647;DHT22;42229;51.230;6.240;2022-12-18T14:38:58;2.50;99.90
27647;DHT22;42229;51.230;6.240;2022-12-18T14:41:25;2.50;99.90
27647;DHT22;42229;51.230;6.240;2022-12-18T14:43:52;2.50;99.90
27647;DHT22;42229;51.230;6.240;2022-12-18T14:49:00;2.50;99.90
27647;DHT22;42229;51.230;6.240;2022-12-18T14:51:30;2.50;99.90
27647;DHT22;42229;51.230;6.240;2022-12-18T14:53:58;2.40;99.90
27647;DHT22;42229;51.230;6.240;2022-12-18T14:56:33;2.40;99.90
27647;DHT22;42229;51.230;6.240;2022-12-18T14:59:04;2.40;99.90
27647;DHT22;42229;51.230;6.240;2022-12-18T15:03:58;2.40;99.90
27647;DHT22;42229;51.230;6.240;2022-12-18T15:06:33;2.40;99.90
27647;DHT22;42229;51.230;6.240;2022-12-18T15:09:03;2.40;99.90
27647;DHT22;42229;51.230;6.240;2022-12-18T15:14:30;2.40;99.90
27647;DHT22;42229;51.230;6.240;2022-12-18T15:16:58;2.30;99.90
27647;DHT22;42229;51.230;6.240;2022-12-18T15:19:43;2.30;99.90
27647;DHT22;42229;51.230;6.240;2022-12-18T15:22:21;2.30;99.90
27647;DHT22;42229;51.230;6.240;2022-12-18T15:24:50;2.30;99.90
27647;DHT22;42229;51.230;6.240;2022-12-18T15:27:23;2.30;99.90
27647;DHT22;42229;51.230;6.240;2022-12-18T15:32:47;2.30;99.90
27647;DHT22;42229;51.230;6.240;2022-12-18T15:35:16;2.30;99.90
27647;DHT22;42229;51.230;6.240;2022-12-18T15:37:47;2.30;99.90
27647;DHT22;42229;51.230;6.240;2022-12-18T15:40:21;2.20;99.90
27647;DHT22;42229;51.230;6.240;2022-12-18T15:42:49;2.20;99.90
27647;DHT22;42229;51.230;6.240;2022-12-18T15:45:36;2.20;99.90
27647;DHT22;42229;51.230;6.240;2022-12-18T15:48:04;2.20;99.90
27647;DHT22;42229;51.230;6.240;2022-12-18T15:50:36;2.20;99.90
27647;DHT22;42229;51.230;6.240;2022-12-18T15:53:02;2.20;99.90
27647;DHT22;42229;51.230;6.240;2022-12-18T15:55:29;2.20;99.90
27647;DHT22;42229;51.230;6.240;2022-12-18T15:58:13;2.20;99.90
27647;DHT22;42229;51.230;6.240;2022-12-18T16:00:40;2.20;99.90
27647;DHT22;42229;51.230;6.240;2022-12-18T16:03:06;2.20;99.90
27647;DHT22;42229;51.230;6.240;2022-12-18T16:05:32;2.20;99.90
27647;DHT22;42229;51.230;6.240;2022-12-18T16:07:58;2.20;99.90
27647;DHT22;42229;51.230;6.240;2022-12-18T16:10:25;2.10;99.90
27647;DHT22;42229;51.230;6.240;2022-12-18T16:12:52;2.10;99.90
27647;DHT22;42229;51.230;6.240;2022-12-18T16:15:18;2.10;99.90
27647;DHT22;42229;51.230;6.240;2022-12-18T16:17:45;2.10;99.90
27647;DHT22;42229;51.230;6.240;2022-12-18T16:20:13;2.10;99.90
27647;DHT22;42229;51.230;6.240;2022-12-18T16:22:41;2.10;99.90
27647;DHT22;42229;51.230;6.240;2022-12-18T16:25:11;2.10;99.90
27647;DHT22;42229;51.230;6.240;2022-12-18T16:27:50;2.10;99.90
27647;DHT22;42229;51.230;6.240;2022-12-18T16:30:18;2.10;99.90
27647;DHT22;42229;51.230;6.240;2022-12-18T16:32:46;2.00;99.90
27647;DHT22;42229;51.230;6.240;2022-12-18T16:35:13;2.00;99.90
27647;DHT22;42229;51.230;6.240;2022-12-18T16:37:41;2.00;99.90
27647;DHT22;42229;51.230;6.240;2022-12-18T16:40:08;2.00;99.90
27647;DHT22;42229;51.230;6.240;2022-12-18T16:42:36;2.00;99.90
27647;DHT22;42229;51.230;6.240;2022-12-18T16:45:04;2.00;99.90
27647;DHT22;42229;51.230;6.240;2022-12-18T16:47:30;2.00;99.90
27647;DHT22;42229;51.230;6.240;2022-12-18T16:49:57;2.00;99.90
27647;DHT22;42229;51.230;6.240;2022-12-18T16:52:23;2.00;99.90
27647;DHT22;42229;51.230;6.240;2022-12-18T16:54:49;2.00;99.90
27647;DHT22;42229;51.230;6.240;2022-12-18T16:57:16;2.00;99.90
27647;DHT22;42229;51.230;6.240;2022-12-18T16:59:44;2.00;99.90
27647;DHT22;42229;51.230;6.240;2022-12-18T17:02:18;2.00;99.90
27647;DHT22;42229;51.230;6.240;2022-12-18T17:04:45;1.90;99.90
27647;DHT22;42229;51.230;6.240;2022-12-18T17:07:12;1.90;99.90
27647;DHT22;42229;51.230;6.240;2022-12-18T17:09:38;1.90;99.90
27647;DHT22;42229;51.230;6.240;2022-12-18T17:12:05;1.90;99.90
27647;DHT22;42229;51.230;6.240;2022-12-18T17:14:32;1.90;99.90
27647;DHT22;42229;51.230;6.240;2022-12-18T17:16:58;2.00;99.90
27647;DHT22;42229;51.230;6.240;2022-12-18T17:19:25;2.00;99.90
27647;DHT22;42229;51.230;6.240;2022-12-18T17:21:52;1.90;99.90
27647;DHT22;42229;51.230;6.240;2022-12-18T17:24:19;1.90;99.90
27647;DHT22;42229;51.230;6.240;2022-12-18T17:26:46;2.00;99.90